Time;durP1;ratioP1;P1;durP2;ratioP2;P2;SDS_P1;SDS_P2;PMS_P1;PMS_P2;Temp;Humidity;BMP_temperature;BMP_pressure;BME280_temperature;BME280_humidity;BME280_pressure;Samples;Min_cycle;Max_cycle;Signal;HPM_P1;HPM_P2
2021/07/27 00:02:11;;;;;;;28.63;15.73;;;;;;;22.58;56.66;101062.28;4981779;28;109306;-64
2021/07/27 00:04:38;;;;;;;27.73;15.93;;;;;;;22.57;56.68;101065.97;4989562;28;109825;-64
2021/07/27 00:07:05;;;;;;;27.00;16.17;;;;;;;22.54;56.71;101077.03;4972189;28;123104;-64
2021/07/27 00:09:34;;;;;;;29.52;16.27;;;;;;;22.53;56.88;101069.97;4981635;28;123534;-64
2021/07/27 00:12:01;;;;;;;28.48;16.50;;;;;;;22.52;56.88;101076.34;4978566;28;109416;-65
2021/07/27 00:14:28;;;;;;;28.98;16.20;;;;;;;22.51;56.87;101071.94;4988937;28;110333;-64
2021/07/27 00:16:55;;;;;;;28.65;15.98;;;;;;;22.50;56.96;101081.03;4988285;28;123889;-65
2021/07/27 00:19:23;;;;;;;30.88;16.85;;;;;;;22.48;57.01;101083.03;4989986;28;124733;-64
2021/07/27 00:21:50;;;;;;;30.65;17.42;;;;;;;22.47;57.14;101075.91;4982318;28;109351;-64
2021/07/27 00:24:17;;;;;;;31.38;16.63;;;;;;;22.46;57.22;101082.31;4983217;28;110173;-64
2021/07/27 00:26:44;;;;;;;32.15;17.48;;;;;;;22.44;57.25;101076.22;4973103;28;122682;-64
2021/07/27 00:29:12;;;;;;;35.05;17.90;;;;;;;22.42;57.30;101075.50;4973904;28;124709;-64
2021/07/27 00:31:39;;;;;;;33.42;18.42;;;;;;;22.41;57.47;101081.88;4972946;28;110694;-64
2021/07/27 00:34:06;;;;;;;34.38;18.75;;;;;;;22.40;57.53;101080.19;4960448;28;109224;-63
2021/07/27 00:36:33;;;;;;;37.25;20.25;;;;;;;22.40;57.63;101077.47;4980564;28;124734;-64
2021/07/27 00:39:00;;;;;;;36.60;19.55;;;;;;;22.38;57.53;101076.75;4982822;28;124941;-64
2021/07/27 00:41:27;;;;;;;36.67;19.50;;;;;;;22.39;57.57;101078.47;4971453;28;109600;-63
2021/07/27 00:43:54;;;;;;;38.10;19.98;;;;;;;22.40;57.70;101085.59;4960597;28;109667;-64
2021/07/27 00:46:22;;;;;;;34.85;19.70;;;;;;;22.39;57.68;101073.06;4980064;28;124036;-62
2021/07/27 00:48:49;;;;;;;34.88;18.88;;;;;;;22.39;57.74;101073.06;4989624;28;123772;-61
2021/07/27 00:51:16;;;;;;;35.35;19.15;;;;;;;22.39;57.79;101081.16;4984880;28;109533;-62
2021/07/27 00:53:44;;;;;;;35.90;18.90;;;;;;;22.41;57.62;101095.38;4981007;28;109728;-63
2021/07/27 00:56:11;;;;;;;38.97;19.85;;;;;;;22.42;57.70;101089.84;4980823;28;124225;-63
2021/07/27 00:58:38;;;;;;;40.20;20.67;;;;;;;22.41;57.69;101084.56;4984331;28;123854;-63
2021/07/27 01:01:05;;;;;;;38.33;19.75;;;;;;;22.40;57.89;101077.47;4971663;28;108995;-63
2021/07/27 01:03:32;;;;;;;37.00;19.58;;;;;;;22.39;57.84;101073.06;4982464;28;110139;-62
2021/07/27 01:06:00;;;;;;;36.17;20.75;;;;;;;22.39;57.96;101078.47;4977735;28;123320;-62
2021/07/27 01:08:27;;;;;;;42.42;20.77;;;;;;;22.37;58.01;101085.84;4983795;28;124250;-62
2021/07/27 01:10:55;;;;;;;36.97;19.50;;;;;;;22.33;57.87;101080.72;4973689;28;109406;-62
2021/07/27 01:13:22;;;;;;;34.88;19.15;;;;;;;22.33;58.06;101075.31;4985359;28;109932;-63
2021/07/27 01:15:49;;;;;;;37.97;20.45;;;;;;;22.31;58.04;101066.53;4970661;28;124369;-63
2021/07/27 01:18:24;;;;;;;37.85;20.77;;;;;;;22.32;58.28;101067.34;4978536;28;123754;-62
2021/07/27 01:37:29;;;;;;;;;;;;;;;22.29;57.73;101071.19;4983605;28;108977;-62
2021/07/27 01:37:50;;;;;;;35.30;19.58;;;;;;;22.22;58.50;101040.34;4985067;28;124844;-62
2021/07/27 01:40:18;;;;;;;35.40;19.73;;;;;;;22.22;58.49;101029.53;4982287;28;123969;-62
2021/07/27 01:42:45;;;;;;;36.58;21.02;;;;;;;22.22;58.59;101029.53;4982011;28;109689;-62
2021/07/27 01:45:12;;;;;;;36.40;19.83;;;;;;;22.22;58.66;101034.94;4986677;28;110069;-62
2021/07/27 01:47:39;;;;;;;35.30;19.60;;;;;;;22.19;58.72;101035.25;4984565;28;124065;-62
2021/07/27 01:50:07;;;;;;;36.08;19.98;;;;;;;22.19;58.72;101035.25;4987093;28;123975;-61
2021/07/27 01:52:34;;;;;;;37.28;20.45;;;;;;;22.20;58.69;101036.94;4987603;28;108518;-62
2021/07/27 01:55:08;;;;;;;37.95;20.00;;;;;;;22.20;58.73;101036.94;4985143;28;110330;-62
2021/07/27 01:57:35;;;;;;;37.38;20.05;;;;;;;22.20;58.74;101031.53;4980722;28;124127;-63
2021/07/27 02:00:08;;;;;;;36.30;18.88;;;;;;;22.20;58.90;101036.94;4972934;28;123312;-63
2021/07/27 02:02:35;;;;;;;36.47;20.20;;;;;;;22.22;58.74;101034.94;4981896;28;109146;-63
2021/07/27 02:05:03;;;;;;;37.20;19.05;;;;;;;22.22;58.71;101034.94;4975929;28;111004;-63
2021/07/27 02:07:30;;;;;;;35.95;19.33;;;;;;;22.21;58.81;101038.66;4979123;28;123284;-62
2021/07/27 02:10:03;;;;;;;33.85;18.45;;;;;;;22.20;58.83;101036.94;4981343;28;123748;-62
2021/07/27 02:12:40;;;;;;;31.25;18.73;;;;;;;22.19;58.78;101029.84;4985695;28;110380;-62
2021/07/27 02:15:09;;;;;;;34.90;18.42;;;;;;;22.19;58.84;101024.44;4977319;28;110382;-63
2021/07/27 02:17:36;;;;;;;34.40;18.58;;;;;;;22.16;58.80;101025.56;4981228;28;124416;-62
2021/07/27 02:20:05;;;;;;;34.25;19.10;;;;;;;22.16;58.67;101030.13;4977983;28;124291;-62
2021/07/27 02:22:33;;;;;;;34.75;18.60;;;;;;;22.11;58.79;101022.47;4970675;28;108170;-62
2021/07/27 02:25:02;;;;;;;33.85;18.95;;;;;;;22.12;58.83;101031.41;4981246;28;110212;-62
2021/07/27 02:27:47;;;;;;;35.85;18.95;;;;;;;22.08;58.65;101032.66;4978719;28;124171;-62
2021/07/27 02:30:14;;;;;;;32.05;18.45;;;;;;;22.04;58.69;101020.44;4974089;28;124556;-62
2021/07/27 02:32:43;;;;;;;33.35;18.35;;;;;;;22.00;58.75;101021.69;4980280;28;109207;-62
2021/07/27 02:35:11;;;;;;;35.90;19.35;;;;;;;21.99;58.47;101028.09;4979361;28;110231;-62
2021/07/27 02:37:39;;;;;;;34.88;18.70;;;;;;;21.94;58.62;101026.69;4978493;28;124625;-63
2021/07/27 02:40:09;;;;;;;35.72;17.75;;;;;;;21.91;58.64;101032.34;4987664;28;124667;-62
2021/07/27 02:42:36;;;;;;;31.23;17.95;;;;;;;21.86;58.63;101022.97;4977368;28;109140;-63
2021/07/27 02:45:05;;;;;;;33.45;17.85;;;;;;;21.83;58.63;101028.63;4983720;28;109936;-63
2021/07/27 02:47:33;;;;;;;31.35;17.23;;;;;;;21.79;58.71;101028.03;4977295;28;124161;-62
2021/07/27 02:50:00;;;;;;;31.50;17.63;;;;;;;21.75;58.80;101032.00;4977962;28;124720;-62
2021/07/27 02:52:27;;;;;;;30.52;16.88;;;;;;;21.71;58.85;101041.38;4969499;28;109424;-62
2021/07/27 02:54:54;;;;;;;31.63;17.00;;;;;;;21.68;58.73;101036.22;4976216;28;109150;-62
2021/07/27 02:57:21;;;;;;;29.52;16.10;;;;;;;21.65;58.79;101036.53;4978519;28;124144;-62
2021/07/27 02:59:49;;;;;;;33.85;17.60;;;;;;;21.62;58.77;101042.19;4982773;28;123928;-63
2021/07/27 03:02:25;;;;;;;33.28;17.85;;;;;;;21.57;59.02;101040.75;4982158;28;110376;-63
2021/07/27 03:04:52;;;;;;;30.67;17.08;;;;;;;21.57;59.05;101040.75;4983502;28;109843;-63
2021/07/27 03:07:21;;;;;;;29.30;17.20;;;;;;;21.52;59.23;101043.00;4989705;28;124150;-63
2021/07/27 03:12:45;;;;;;;32.47;17.38;;;;;;;21.47;59.20;101050.63;4972641;28;109883;-63
2021/07/27 03:15:14;;;;;;;30.92;17.48;;;;;;;21.43;59.38;101042.91;4979278;28;110081;-63
2021/07/27 03:17:41;;;;;;;31.02;16.95;;;;;;;21.42;59.40;101051.97;4982110;28;124052;-63
2021/07/27 03:20:10;;;;;;;29.13;16.30;;;;;;;21.40;59.27;101046.75;4980049;28;124280;-63
2021/07/27 03:22:40;;;;;;;31.70;17.88;;;;;;;21.37;59.47;101055.94;4976283;28;109012;-63
2021/07/27 03:25:10;;;;;;;27.60;16.42;;;;;;;21.35;59.38;101067.84;4985022;28;109923;-63
2021/07/27 03:27:37;;;;;;;29.88;15.98;;;;;;;21.34;59.51;101063.44;4978250;28;124725;-63
2021/07/27 03:30:05;;;;;;;29.08;16.23;;;;;;;21.31;59.51;101061.88;4978807;28;124144;-63
2021/07/27 03:32:36;;;;;;;27.42;16.83;;;;;;;21.29;59.65;101052.22;4977606;28;108984;-63
2021/07/27 03:35:05;;;;;;;27.08;16.00;;;;;;;21.25;59.71;101051.63;4987569;28;109162;-63
2021/07/27 03:37:33;;;;;;;29.05;15.40;;;;;;;21.22;59.75;101056.44;4975687;28;124507;-63
2021/07/27 03:40:01;;;;;;;30.60;16.40;;;;;;;21.20;59.88;101060.09;4977169;28;124019;-63
2021/07/27 03:42:28;;;;;;;27.30;16.27;;;;;;;21.18;59.84;101054.00;4975518;28;108109;-63
2021/07/27 03:44:57;;;;;;;28.50;15.75;;;;;;;21.16;59.83;101053.28;4977514;28;109865;-63
2021/07/27 03:47:25;;;;;;;28.30;16.33;;;;;;;21.13;60.06;101058.91;4973885;28;124219;-63
2021/07/27 03:49:56;;;;;;;28.95;16.40;;;;;;;21.11;60.06;101060.03;4980512;28;123851;-63
2021/07/27 03:52:23;;;;;;;28.70;16.35;;;;;;;21.10;60.14;101059.19;4980971;28;109140;-63
2021/07/27 03:54:51;;;;;;;28.52;16.00;;;;;;;21.08;60.04;101050.41;4986321;28;109939;-64
2021/07/27 03:57:18;;;;;;;29.25;16.30;;;;;;;21.06;60.09;101056.88;4973063;28;123869;-64
2021/07/27 03:59:45;;;;;;;27.40;15.73;;;;;;;21.05;60.31;101056.03;5000510;28;122904;-63
2021/07/27 04:02:13;;;;;;;25.55;15.27;;;;;;;21.04;60.29;101054.34;4982615;28;109233;-63
2021/07/27 04:04:40;;;;;;;28.75;16.00;;;;;;;21.04;60.28;101058.88;4978785;28;111006;-63
2021/07/27 04:07:07;;;;;;;25.27;14.65;;;;;;;21.04;60.37;101054.34;4974129;28;123861;-63
2021/07/27 04:09:34;;;;;;;29.77;16.30;;;;;;;21.03;60.24;101063.41;4975320;28;124007;-63
2021/07/27 04:12:01;;;;;;;27.70;14.57;;;;;;;21.02;60.28;101056.31;4976649;28;109513;-63
2021/07/27 04:14:29;;;;;;;25.98;15.52;;;;;;;21.02;60.38;101058.16;4975069;28;110028;-63
2021/07/27 04:16:56;;;;;;;27.92;16.08;;;;;;;21.01;60.43;101060.00;4974676;28;124021;-63
2021/07/27 04:19:23;;;;;;;26.50;15.30;;;;;;;21.01;60.56;101062.69;4979453;28;122968;-63
2021/07/27 04:21:50;;;;;;;23.02;14.32;;;;;;;21.01;60.39;101065.38;4988836;28;109291;-63
2021/07/27 04:24:18;;;;;;;27.52;14.95;;;;;;;21.02;60.47;101056.31;4985207;28;110132;-63
2021/07/27 04:26:46;;;;;;;25.00;14.68;;;;;;;21.02;60.37;101056.31;4981521;28;124529;-63
2021/07/27 04:29:15;;;;;;;24.10;14.18;;;;;;;21.03;60.46;101058.00;4980802;28;123996;-63
2021/07/27 04:31:45;;;;;;;24.58;14.77;;;;;;;21.05;60.51;101053.34;4982261;28;109571;-63
2021/07/27 04:34:12;;;;;;;24.08;14.30;;;;;;;21.05;60.67;101050.66;4982283;28;110551;-63
2021/07/27 04:36:42;;;;;;;25.15;14.27;;;;;;;21.05;60.63;101050.66;4982586;28;124722;-63
2021/07/27 04:39:09;;;;;;;28.73;14.85;;;;;;;21.07;60.80;101059.44;4986211;28;124223;-63
2021/07/27 04:41:37;;;;;;;25.77;14.15;;;;;;;21.09;60.82;101060.16;4981185;28;110346;-63
2021/07/27 04:44:06;;;;;;;25.52;14.02;;;;;;;21.10;60.79;101059.19;4986042;28;110065;-62
2021/07/27 04:46:35;;;;;;;25.30;15.07;;;;;;;21.11;60.74;101060.88;4987730;28;124070;-63
2021/07/27 04:49:02;;;;;;;28.08;14.02;;;;;;;21.12;60.66;101057.22;4978020;28;124629;-63
2021/07/27 04:51:30;;;;;;;23.10;13.68;;;;;;;21.14;60.68;101055.25;4987927;28;109091;-63
2021/07/27 04:54:05;;;;;;;25.77;14.85;;;;;;;21.15;60.89;101046.19;4984102;28;110192;-63
2021/07/27 04:56:32;;;;;;;24.52;14.68;;;;;;;21.17;60.87;101049.59;4988055;28;124199;-63
2021/07/27 04:59:00;;;;;;;23.15;13.52;;;;;;;21.19;60.84;101047.63;4977012;28;123960;-63
2021/07/27 05:01:27;;;;;;;22.48;13.65;;;;;;;21.22;60.76;101045.66;4977934;28;109171;-63
2021/07/27 05:03:58;;;;;;;23.50;13.70;;;;;;;21.24;60.93;101046.38;4975176;28;108957;-63
2021/07/27 05:06:25;;;;;;;23.80;13.45;;;;;;;21.27;60.80;101054.19;4984081;28;124670;-63
2021/07/27 05:08:52;;;;;;;26.73;13.90;;;;;;;21.29;60.90;101052.22;4982505;28;124244;-63
2021/07/27 05:11:20;;;;;;;25.00;14.23;;;;;;;21.29;60.85;101046.84;4979735;28;109362;-63
2021/07/27 05:13:47;;;;;;;23.52;13.45;;;;;;;21.30;60.73;101032.38;4976412;28;110269;-63
2021/07/27 05:16:18;;;;;;;23.60;13.65;;;;;;;21.31;60.84;101039.47;4979635;28;124795;-63
2021/07/27 05:18:46;;;;;;;25.23;14.18;;;;;;;21.32;60.78;101046.56;4975760;28;123999;-63
2021/07/27 05:21:16;;;;;;;24.17;13.80;;;;;;;21.33;60.93;101046.41;4985561;28;109432;-63
2021/07/27 05:23:43;;;;;;;21.73;13.38;;;;;;;21.34;60.93;101055.34;4985286;28;110129;-63
2021/07/27 05:26:10;;;;;;;23.38;13.18;;;;;;;21.36;60.80;101064.16;4987785;28;124338;-63
2021/07/27 05:28:37;;;;;;;23.95;13.60;;;;;;;21.36;60.92;101046.16;4986948;28;122999;-63
2021/07/27 05:31:05;;;;;;;24.77;14.02;;;;;;;21.38;60.97;101046.88;4963693;28;109046;-62
2021/07/27 05:33:33;;;;;;;25.98;14.40;;;;;;;21.40;61.00;101044.06;4980354;28;109369;-62
2021/07/27 05:36:00;;;;;;;22.75;13.57;;;;;;;21.43;61.06;101043.78;4982887;28;124106;-63
2021/07/27 05:38:27;;;;;;;25.17;14.35;;;;;;;21.45;61.05;101047.22;4977111;28;123802;-63
2021/07/27 05:40:54;;;;;;;24.83;13.77;;;;;;;21.48;60.94;101052.34;4990906;28;109056;-63
2021/07/27 05:43:21;;;;;;;23.50;13.15;;;;;;;21.49;60.89;101043.28;4978537;28;109839;-63
2021/07/27 05:45:49;;;;;;;22.30;13.55;;;;;;;21.53;60.84;101044.72;4986192;28;123192;-64
2021/07/27 05:48:16;;;;;;;22.58;12.90;;;;;;;21.54;60.82;101046.41;4980074;28;123849;-63
2021/07/27 05:50:43;;;;;;;25.90;13.70;;;;;;;21.55;60.90;101037.34;4977061;28;110384;-63
2021/07/27 05:53:10;;;;;;;23.58;13.60;;;;;;;21.58;61.02;101047.84;4979427;28;110170;-63
2021/07/27 05:55:37;;;;;;;23.75;13.95;;;;;;;21.63;61.05;101038.50;4987080;28;124337;-63
2021/07/27 05:58:04;;;;;;;25.55;13.70;;;;;;;21.68;60.87;101047.03;4982594;28;124363;-63
2021/07/27 06:00:35;;;;;;;22.65;13.30;;;;;;;21.71;61.04;101044.06;4980777;28;109530;-62
2021/07/27 06:03:04;;;;;;;22.70;13.38;;;;;;;21.75;60.97;101042.78;4980984;28;110120;-63
2021/07/27 06:05:31;;;;;;;23.92;15.10;;;;;;;21.81;61.04;101042.22;4980830;28;124090;-62
2021/07/27 06:07:58;;;;;;;24.80;14.23;;;;;;;21.87;61.18;101041.72;4983475;28;123948;-62
2021/07/27 06:10:25;;;;;;;24.95;14.32;;;;;;;21.94;61.00;101042.88;4989809;28;109493;-62
2021/07/27 06:12:52;;;;;;;24.52;14.40;;;;;;;22.00;60.92;101048.69;4987775;28;109292;-63
2021/07/27 06:15:21;;;;;;;26.33;14.27;;;;;;;22.03;60.99;101045.72;4978972;28;124232;-63
2021/07/27 06:17:49;;;;;;;23.65;13.90;;;;;;;22.07;60.87;101047.97;4982152;28;123984;-63
2021/07/27 06:20:16;;;;;;;26.67;14.27;;;;;;;22.11;60.74;101053.94;4985375;28;110535;-63
2021/07/27 06:22:43;;;;;;;23.30;14.25;;;;;;;22.14;60.72;101049.13;4974876;28;110581;-63
2021/07/27 06:25:12;;;;;;;23.95;14.23;;;;;;;22.18;60.69;101044.31;4960845;28;124752;-63
2021/07/27 06:27:39;;;;;;;25.48;14.43;;;;;;;22.24;60.66;101049.13;4988541;28;124016;-63
2021/07/27 06:30:09;;;;;;;25.30;14.73;;;;;;;22.28;60.69;101045.22;4973194;28;108748;-65
2021/07/27 06:32:36;;;;;;;24.80;15.18;;;;;;;22.33;60.59;101048.34;4973701;28;109433;-64
2021/07/27 06:35:04;;;;;;;24.65;14.35;;;;;;;22.37;60.45;101053.47;4972720;28;125390;-64
2021/07/27 06:37:31;;;;;;;28.10;15.75;;;;;;;22.40;60.38;101053.19;4974036;28;122836;-64
2021/07/27 06:39:58;;;;;;;30.88;15.23;;;;;;;22.44;60.39;101054.63;4987373;28;109517;-64
2021/07/27 06:42:25;;;;;;;25.35;14.18;;;;;;;22.50;60.39;101064.84;4972214;28;109944;-64
2021/07/27 06:44:52;;;;;;;27.02;14.68;;;;;;;22.53;60.25;101059.16;4974922;28;123787;-65
2021/07/27 06:47:20;;;;;;;24.13;14.27;;;;;;;22.57;60.05;101049.78;4943108;28;123357;-65
2021/07/27 06:49:48;;;;;;;23.95;14.18;;;;;;;22.62;60.15;101057.44;4974339;28;109493;-64
2021/07/27 06:52:20;;;;;;;24.48;14.32;;;;;;;22.65;60.05;101052.59;4970405;28;110568;-64
2021/07/27 06:54:47;;;;;;;23.92;14.18;;;;;;;22.71;60.01;101054.72;4972632;28;124988;-64
2021/07/27 06:57:14;;;;;;;26.55;15.13;;;;;;;22.78;60.06;101062.28;4971725;28;123070;-64
2021/07/27 06:59:41;;;;;;;24.42;14.10;;;;;;;22.85;60.02;101066.09;4974982;28;109070;-64
2021/07/27 07:02:09;;;;;;;27.10;14.93;;;;;;;22.92;59.80;101069.94;4973307;28;109525;-64
2021/07/27 07:04:36;;;;;;;25.85;14.18;;;;;;;22.95;59.64;101064.25;4972095;28;123950;-64
2021/07/27 07:07:06;;;;;;;26.23;15.10;;;;;;;22.98;59.52;101063.97;4971999;28;124107;-64
2021/07/27 07:09:35;;;;;;;24.02;14.25;;;;;;;23.01;59.57;101066.34;4977357;28;109091;-64
2021/07/27 07:12:07;;;;;;;22.33;14.30;;;;;;;23.05;59.53;101069.66;4977100;28;110516;-64
2021/07/27 07:14:34;;;;;;;22.50;14.55;;;;;;;23.11;59.39;101064.53;4969789;28;124794;-64
2021/07/27 07:17:02;;;;;;;23.17;14.18;;;;;;;23.16;59.42;101065.94;4973129;28;124777;-64
2021/07/27 07:19:30;;;;;;;21.50;13.95;;;;;;;23.18;59.20;101061.25;4973998;28;109117;-64
2021/07/27 07:21:57;;;;;;;23.20;13.98;;;;;;;23.20;59.17;101061.94;4974643;28;110059;-64
2021/07/27 07:24:24;;;;;;;20.33;13.55;;;;;;;23.23;59.26;101067.06;4971665;28;124140;-64
2021/07/27 07:26:51;;;;;;;21.15;12.93;;;;;;;23.27;59.08;101063.06;4973997;28;124037;-64
2021/07/27 07:29:18;;;;;;;21.88;13.50;;;;;;;23.30;59.08;101069.03;4973019;28;109455;-65
2021/07/27 07:31:45;;;;;;;20.73;11.82;;;;;;;23.35;59.04;101070.44;4973673;28;109865;-63
2021/07/27 07:34:13;;;;;;;18.05;11.77;;;;;;;23.39;59.05;101077.25;4972759;28;123047;-63
2021/07/27 07:36:40;;;;;;;21.50;11.68;;;;;;;23.42;58.73;101072.41;4960819;28;126140;-64
2021/07/27 07:39:07;;;;;;;20.60;12.13;;;;;;;23.44;58.70;101070.41;4974468;28;109890;-63
2021/07/27 07:41:34;;;;;;;20.35;12.18;;;;;;;23.47;58.58;101070.13;4972436;28;110290;-63
2021/07/27 07:44:01;;;;;;;19.33;11.57;;;;;;;23.52;58.79;101072.38;4972028;28;123980;-63
2021/07/27 07:46:28;;;;;;;17.70;11.77;;;;;;;23.56;58.67;101070.22;4972590;28;123252;-63
2021/07/27 07:48:56;;;;;;;18.25;11.65;;;;;;;23.60;58.46;101074.34;4972300;28;109745;-63
2021/07/27 07:51:24;;;;;;;18.48;12.23;;;;;;;23.65;58.66;101072.03;4959588;28;109882;-63
2021/07/27 07:53:51;;;;;;;18.63;12.20;;;;;;;23.70;58.22;101067.03;4986448;28;124743;-63
2021/07/27 07:56:18;;;;;;;17.60;11.77;;;;;;;23.74;58.23;101065.75;4977177;28;124247;-63
2021/07/27 07:58:47;;;;;;;18.55;12.18;;;;;;;23.80;58.28;101054.34;4964366;28;110424;-63
2021/07/27 08:01:14;;;;;;;17.58;11.50;;;;;;;23.87;58.14;101050.03;4975235;28;110046;-63
2021/07/27 08:03:41;;;;;;;18.27;12.07;;;;;;;23.96;58.18;101047.41;4978845;28;124434;-63
2021/07/27 08:06:09;;;;;;;16.88;11.57;;;;;;;24.07;58.35;101044.50;4976324;28;123290;-63
2021/07/27 08:08:38;;;;;;;18.38;11.82;;;;;;;24.22;58.09;101059.25;4975252;28;109534;-63
2021/07/27 08:11:09;;;;;;;19.50;11.30;;;;;;;24.32;57.68;101047.47;4975424;28;110292;-63
2021/07/27 08:13:37;;;;;;;18.30;11.95;;;;;;;24.45;58.07;101048.81;4975717;28;124247;-63
2021/07/27 08:16:11;;;;;;;16.55;11.45;;;;;;;24.60;57.78;101051.84;4968386;28;123702;-63
2021/07/27 08:18:38;;;;;;;17.73;11.73;;;;;;;24.76;57.51;101047.56;4977172;28;108334;-63
2021/07/27 08:21:05;;;;;;;17.48;10.77;;;;;;;24.92;57.18;101055.84;4975526;28;109811;-63
2021/07/27 08:23:32;;;;;;;15.95;11.05;;;;;;;25.06;57.01;101055.25;4975656;28;123091;-63
2021/07/27 08:26:00;;;;;;;15.05;10.85;;;;;;;25.16;56.35;101057.00;4976537;28;124587;-63
2021/07/27 08:28:27;;;;;;;15.98;10.60;;;;;;;25.26;56.18;101057.78;4976978;28;109105;-63
2021/07/27 08:30:54;;;;;;;12.18;9.63;;;;;;;25.35;55.80;101054.09;4977164;28;110169;-63
2021/07/27 08:33:23;;;;;;;15.30;9.55;;;;;;;25.41;55.26;101050.75;4977129;28;124755;-63
2021/07/27 08:35:51;;;;;;;14.68;9.48;;;;;;;25.46;55.23;101047.56;4974329;28;123965;-63
2021/07/27 08:38:18;;;;;;;15.20;9.13;;;;;;;25.52;55.08;101040.63;4971639;28;114597;-63
2021/07/27 08:40:48;;;;;;;14.45;9.80;;;;;;;25.58;54.99;101048.13;4979916;28;114067;-63
2021/07/27 08:43:18;;;;;;;12.85;9.00;;;;;;;25.64;54.60;101047.47;4974058;28;123901;-63
2021/07/27 08:45:46;;;;;;;14.27;8.57;;;;;;;25.67;54.34;101046.28;4979279;28;123982;-63
2021/07/27 08:48:22;;;;;;;14.07;8.93;;;;;;;25.73;54.22;101043.78;4970766;28;114781;-63
2021/07/27 08:50:50;;;;;;;13.52;9.05;;;;;;;25.80;54.71;101044.81;4960470;28;114590;-63
2021/07/27 08:53:18;;;;;;;13.48;8.73;;;;;;;25.93;54.52;101046.25;4956586;28;124618;-63
2021/07/27 08:55:45;;;;;;;12.63;8.88;;;;;;;26.04;54.01;101040.53;4975545;28;122826;-63
2021/07/27 08:58:12;;;;;;;10.43;7.65;;;;;;;26.11;53.67;101044.28;4971409;28;114267;-63
2021/07/27 09:00:40;;;;;;;11.82;8.20;;;;;;;26.17;53.56;101046.31;4976771;28;113915;-63
2021/07/27 09:03:08;;;;;;;13.40;8.95;;;;;;;26.22;53.02;101043.97;4974136;28;125024;-63
2021/07/27 09:05:37;;;;;;;10.85;8.00;;;;;;;26.27;52.70;101045.31;4977468;28;124811;-63
2021/07/27 09:08:07;;;;;;;12.18;8.70;;;;;;;26.27;52.48;101039.91;4976680;28;114684;-63
2021/07/27 09:10:38;;;;;;;12.05;8.20;;;;;;;26.26;52.49;101049.03;4972849;28;113983;-63
2021/07/27 09:13:08;;;;;;;11.20;7.80;;;;;;;26.27;52.41;101050.75;4978933;28;124584;-63
2021/07/27 09:15:39;;;;;;;11.27;8.57;;;;;;;26.28;52.02;101047.88;4977337;28;124018;-63
2021/07/27 09:18:21;;;;;;;11.20;8.57;;;;;;;26.27;51.73;101042.59;4979306;28;114977;-64
2021/07/27 09:20:53;;;;;;;10.32;8.75;;;;;;;26.27;51.80;101042.59;4977662;28;114036;-63
2021/07/27 09:23:23;;;;;;;12.05;8.45;;;;;;;26.27;51.58;101038.03;4975780;28;124132;-63
2021/07/27 09:25:52;;;;;;;14.27;8.93;;;;;;;26.32;51.75;101042.97;4972277;28;123505;-63
2021/07/27 09:28:21;;;;;;;14.13;9.60;;;;;;;26.39;51.95;101038.53;4975711;28;113203;-64
2021/07/27 09:30:55;;;;;;;11.75;8.52;;;;;;;26.50;51.89;101040.94;4980867;28;113737;-63
2021/07/27 09:33:34;;;;;;;10.52;8.18;;;;;;;26.59;51.31;101039.94;4972952;28;124253;-63
2021/07/27 09:36:04;;;;;;;11.65;7.55;;;;;;;26.63;51.30;101039.63;4973265;28;123900;-64
2021/07/27 09:38:32;;;;;;;11.35;8.00;;;;;;;26.66;51.00;101039.28;4973131;28;114178;-63
2021/07/27 09:41:06;;;;;;;10.50;8.38;;;;;;;26.70;50.76;101051.50;4973120;28;115002;-63
2021/07/27 09:43:45;;;;;;;10.80;9.05;;;;;;;26.70;50.86;101046.06;4960716;28;123860;-63
2021/07/27 09:46:12;;;;;;;11.73;8.98;;;;;;;26.69;50.64;101055.22;4974267;28;123968;-63
2021/07/27 09:48:41;;;;;;;13.77;9.52;;;;;;;26.66;50.45;101052.88;4986181;28;113284;-63
2021/07/27 09:51:10;;;;;;;11.73;9.13;;;;;;;26.65;50.61;101040.28;4971317;28;114303;-63
2021/07/27 09:53:38;;;;;;;13.55;8.85;;;;;;;26.70;50.35;101051.50;4971872;28;123871;-64
2021/07/27 09:56:08;;;;;;;10.52;8.32;;;;;;;26.73;50.12;101054.75;4985419;28;124890;-63
2021/07/27 09:58:35;;;;;;;10.57;8.35;;;;;;;26.77;50.43;101052.53;4979916;28;114348;-63
2021/07/27 10:01:29;;;;;;;12.73;8.23;;;;;;;26.78;50.10;101048.78;4991388;28;114368;-63
2021/07/27 10:04:03;;;;;;;11.43;8.23;;;;;;;26.82;50.07;101050.13;4959391;28;124646;-63
2021/07/27 10:06:35;;;;;;;12.23;8.33;;;;;;;26.84;50.02;101048.09;4972978;28;121679;-63
2021/07/27 10:09:04;;;;;;;12.15;8.82;;;;;;;26.83;50.02;101051.84;4967152;28;114318;-63
2021/07/27 10:11:42;;;;;;;11.25;8.90;;;;;;;26.83;49.52;101057.28;4972465;28;114296;-63
2021/07/27 10:14:15;;;;;;;11.27;8.65;;;;;;;26.84;49.82;101063.56;4983010;28;124438;-63
2021/07/27 10:16:43;;;;;;;11.55;9.05;;;;;;;26.85;49.65;101060.69;4968001;28;123890;-63
2021/07/27 10:19:20;;;;;;;12.68;9.55;;;;;;;26.87;49.73;101058.63;4978110;28;114031;-63
2021/07/27 10:22:03;;;;;;;12.93;9.35;;;;;;;26.91;49.87;101059.97;4975277;28;114174;-63
2021/07/27 10:24:47;;;;;;;13.02;9.52;;;;;;;26.94;49.98;101058.81;4985999;28;123170;-63
2021/07/27 10:27:18;;;;;;;13.77;8.98;;;;;;;26.97;49.86;101059.31;4979646;28;124191;-63
2021/07/27 10:29:45;;;;;;;11.50;8.52;;;;;;;27.04;49.55;101069.50;4978296;28;115592;-63
2021/07/27 10:32:14;;;;;;;12.82;8.13;;;;;;;27.08;50.14;101066.25;4973088;28;115709;-63
2021/07/27 10:34:42;;;;;;;11.27;7.88;;;;;;;27.16;49.31;101065.38;4971342;28;123131;-63
2021/07/27 10:37:11;;;;;;;9.07;6.88;;;;;;;27.21;49.26;101064.88;4982113;28;122879;-63
2021/07/27 10:39:49;;;;;;;9.02;6.93;;;;;;;27.24;48.57;101064.53;4973925;28;114309;-63
2021/07/27 10:42:17;;;;;;;11.43;7.30;;;;;;;27.26;48.58;101057.94;4970866;28;114471;-63
2021/07/27 10:44:45;;;;;;;11.45;7.25;;;;;;;27.29;48.26;101063.00;4969732;28;124842;-63
2021/07/27 10:47:21;;;;;;;9.15;6.30;;;;;;;27.35;48.00;101067.78;4972885;28;122936;-63
2021/07/27 10:50:03;;;;;;;8.70;6.40;;;;;;;27.36;47.94;101069.47;4971586;28;114340;-63
2021/07/27 10:52:31;;;;;;;8.98;6.93;;;;;;;27.36;47.56;101069.47;4976032;28;114064;-63
2021/07/27 10:55:00;;;;;;;10.52;7.07;;;;;;;27.35;47.81;101070.50;4969282;28;124616;-63
2021/07/27 10:57:35;;;;;;;10.30;7.20;;;;;;;27.37;47.95;101073.91;4972462;28;123732;-64
2021/07/27 11:00:06;;;;;;;10.93;7.90;;;;;;;27.43;47.91;101068.78;4971894;28;113215;-63
2021/07/27 11:02:33;;;;;;;10.13;7.32;;;;;;;27.46;47.68;101063.81;4972147;28;113896;-63
2021/07/27 11:05:00;;;;;;;11.98;7.85;;;;;;;27.47;47.44;101070.13;4973223;28;124682;-63
2021/07/27 11:07:32;;;;;;;11.05;7.75;;;;;;;27.46;47.82;101074.69;4971983;28;124642;-63
2021/07/27 11:10:00;;;;;;;10.73;6.95;;;;;;;27.50;47.40;101069.75;4973013;28;114615;-63
2021/07/27 11:12:38;;;;;;;8.65;6.63;;;;;;;27.48;47.46;101077.25;4971356;28;114121;-63
2021/07/27 11:15:10;;;;;;;10.27;7.68;;;;;;;27.48;47.29;101077.25;4971289;28;125123;-63
2021/07/27 11:17:41;;;;;;;10.10;7.15;;;;;;;27.52;47.42;101073.16;4972915;28;124050;-63
2021/07/27 11:20:11;;;;;;;10.18;7.00;;;;;;;27.58;47.83;101077.91;4969629;28;115104;-63
2021/07/27 11:22:53;;;;;;;10.10;7.38;;;;;;;27.64;47.40;101066.31;4976646;28;113841;-63
2021/07/27 11:25:22;;;;;;;9.85;6.65;;;;;;;27.67;46.77;101070.56;4966610;28;124745;-63
2021/07/27 11:27:51;;;;;;;9.15;6.85;;;;;;;27.67;46.86;101076.88;4970973;28;122800;-63
2021/07/27 11:30:33;;;;;;;11.90;7.38;;;;;;;27.68;46.68;101073.09;4970120;28;114233;-63